< < Back
Terminal Aerodrome Forecast


Current Version              Previous Versions:   1  2  3  4  5  6  7  8  9  

Terminal Aerodrome Forecast

291
FTUS42 KTAE 252339
TAFABY
TAF
KABY 252339Z 2600/2624 15006KT P6SM VCTS SCT050CB
      TEMPO 2600/2601 VRB15KT -TSRA BKN050CB
     FM260100 12006KT P6SM FEW060 SCT250
     FM260900 11006KT P6SM BKN015
     FM261500 16008KT P6SM VCTS BKN030CB
      TEMPO 2619/2621 P6SM TS OVC030CB=

Latest METAR

165
SAUS70 KWBC 252300 RRA
MTRABY
METAR KABY 252253Z 30007KT 10SM BKN060 30/22 A3016 RMK AO2 SLP210
T03000217


USA.gov is the U.S. government's official web portal to all federal, state and local government web resources and services.